createdAt,value
2022-08-03T00:01:49.183Z,4.60
2022-08-03T00:04:16.905Z,3.75
2022-08-03T00:06:44.579Z,3.28
2022-08-03T00:09:12.590Z,4.35
2022-08-03T00:11:40.195Z,4.05
2022-08-03T00:14:09.070Z,3.90
2022-08-03T00:16:36.713Z,3.80
2022-08-03T00:19:04.645Z,4.47
2022-08-03T00:21:32.086Z,3.97
2022-08-03T00:24:00.331Z,4.05
2022-08-03T00:26:27.740Z,4.32
2022-08-03T00:28:55.324Z,3.85
2022-08-03T00:31:32.217Z,3.92
2022-08-03T00:34:10.310Z,3.60
2022-08-03T00:36:40.297Z,3.63
2022-08-03T00:39:07.733Z,3.75
2022-08-03T00:41:35.193Z,3.88
2022-08-03T00:44:02.648Z,3.85
2022-08-03T00:46:30.065Z,3.65
2022-08-03T00:48:57.628Z,3.28
2022-08-03T00:51:25.759Z,3.20
2022-08-03T00:53:53.234Z,3.60
2022-08-03T00:56:20.773Z,3.28
2022-08-03T00:58:48.317Z,3.08
2022-08-03T01:01:15.867Z,3.40
2022-08-03T01:03:45.280Z,2.83
2022-08-03T01:06:41.282Z,2.70
2022-08-03T01:09:21.130Z,2.97
2022-08-03T01:12:00.643Z,2.92
2022-08-03T01:14:49.423Z,2.80
2022-08-03T01:17:37.217Z,2.65
2022-08-03T01:20:09.769Z,2.60
2022-08-03T01:22:58.661Z,2.70
2022-08-03T01:25:54.731Z,2.53
2022-08-03T01:28:49.425Z,2.58
2022-08-03T01:31:22.808Z,2.72
2022-08-03T01:33:58.151Z,2.60
2022-08-03T01:36:34.181Z,2.60
2022-08-03T01:39:09.679Z,2.40
2022-08-03T01:41:44.800Z,2.83
2022-08-03T01:44:30.155Z,2.45
2022-08-03T01:47:00.803Z,2.80
2022-08-03T01:49:30.682Z,2.30
2022-08-03T01:52:04.858Z,2.47
2022-08-03T01:54:38.417Z,2.80
2022-08-03T01:57:07.400Z,2.42
2022-08-03T01:59:37.123Z,2.30
2022-08-03T02:02:15.485Z,2.28
2022-08-03T02:04:57.914Z,2.60
2022-08-03T02:07:27.265Z,2.47
2022-08-03T02:09:56.183Z,2.10
2022-08-03T02:12:29.020Z,2.40
2022-08-03T02:15:18.313Z,2.63
2022-08-03T02:17:47.988Z,2.92
2022-08-03T02:20:16.593Z,2.33
2022-08-03T02:22:45.743Z,3.00
2022-08-03T02:25:14.967Z,2.65
2022-08-03T02:27:55.589Z,2.78
2022-08-03T02:30:30.556Z,2.30
2022-08-03T02:32:59.770Z,2.45
2022-08-03T02:35:29.981Z,2.10
2022-08-03T02:38:02.784Z,2.05
2022-08-03T02:40:31.714Z,2.80
2022-08-03T02:43:15.876Z,2.65
2022-08-03T02:45:46.246Z,2.38
2022-08-03T02:48:18.194Z,2.60
2022-08-03T02:50:47.870Z,2.30
2022-08-03T02:53:18.042Z,2.40
2022-08-03T02:55:48.078Z,2.13
2022-08-03T02:58:18.971Z,2.03
2022-08-03T03:00:47.484Z,2.47
2022-08-03T03:03:16.173Z,2.10
2022-08-03T03:05:52.939Z,2.10
2022-08-03T03:08:28.608Z,1.95
2022-08-03T03:11:00.059Z,1.70
2022-08-03T03:13:32.701Z,1.85
2022-08-03T03:16:06.426Z,2.20
2022-08-03T03:18:35.394Z,1.90
2022-08-03T03:21:04.394Z,1.88
2022-08-03T03:23:35.917Z,1.45
2022-08-03T03:26:04.439Z,1.77
2022-08-03T03:28:33.239Z,1.92
2022-08-03T03:31:01.321Z,1.80
2022-08-03T03:33:28.878Z,1.65
2022-08-03T03:35:57.977Z,1.70
2022-08-03T03:38:25.577Z,1.60
2022-08-03T03:40:53.205Z,2.20
2022-08-03T03:43:20.780Z,2.10
2022-08-03T03:45:48.495Z,1.70
2022-08-03T03:48:16.606Z,1.75
2022-08-03T03:50:44.573Z,1.70
2022-08-03T03:53:13.979Z,1.40
2022-08-03T03:55:59.317Z,1.38
2022-08-03T03:58:32.234Z,1.50
2022-08-03T04:01:00.769Z,1.45
2022-08-03T04:03:28.787Z,1.40
2022-08-03T04:06:15.570Z,1.17
2022-08-03T04:09:01.546Z,1.38
2022-08-03T04:11:48.042Z,1.17
2022-08-03T04:14:21.162Z,1.20
2022-08-03T04:16:58.294Z,1.20
2022-08-03T04:19:32.785Z,1.30
2022-08-03T04:22:03.854Z,1.20
2022-08-03T04:24:35.587Z,1.15
2022-08-03T04:27:07.085Z,1.02
2022-08-03T04:29:38.512Z,0.97
2022-08-03T04:32:12.842Z,1.00
2022-08-03T04:34:41.082Z,0.90
2022-08-03T04:37:15.216Z,0.73
2022-08-03T04:39:44.872Z,0.80
2022-08-03T04:42:14.396Z,0.90
2022-08-03T04:44:45.549Z,0.93
2022-08-03T04:47:13.013Z,0.80
2022-08-03T04:49:40.993Z,0.60
2022-08-03T04:52:10.391Z,0.70
2022-08-03T04:54:50.295Z,0.70
2022-08-03T04:57:23.045Z,0.60
2022-08-03T05:00:01.362Z,0.60
2022-08-03T05:02:33.805Z,0.57
2022-08-03T05:05:01.363Z,0.57
2022-08-03T05:07:35.459Z,0.70
2022-08-03T05:10:14.760Z,0.70
2022-08-03T05:12:45.863Z,0.68
2022-08-03T05:15:13.527Z,0.70
2022-08-03T05:17:41.086Z,0.70
2022-08-03T05:20:09.129Z,0.60
2022-08-03T05:22:36.624Z,0.70
2022-08-03T05:25:04.405Z,0.60
2022-08-03T05:27:31.910Z,0.60
2022-08-03T05:30:30.360Z,0.70
2022-08-03T05:32:46.865Z,0.70
2022-08-03T05:35:57.301Z,0.70
2022-08-03T05:38:03.689Z,0.80
2022-08-03T05:40:31.440Z,0.98
2022-08-03T05:42:59.323Z,0.80
2022-08-03T05:45:28.528Z,0.93
2022-08-03T05:47:56.317Z,0.90
2022-08-03T05:50:24.057Z,0.88
2022-08-03T05:52:51.479Z,0.90
2022-08-03T05:55:19.326Z,0.60
2022-08-03T05:57:47.390Z,0.80
2022-08-03T06:00:17.394Z,0.90
2022-08-03T06:02:46.558Z,0.90
2022-08-03T06:05:14.108Z,0.77
2022-08-03T06:07:41.669Z,0.80
2022-08-03T06:10:36.658Z,0.90
2022-08-03T06:12:57.146Z,0.70
2022-08-03T06:15:24.845Z,0.77
2022-08-03T06:17:52.733Z,0.75
2022-08-03T06:20:21.179Z,0.85
2022-08-03T06:22:51.379Z,1.00
2022-08-03T06:25:28.091Z,0.80
2022-08-03T06:27:55.479Z,0.80
2022-08-03T06:30:23.003Z,0.98
2022-08-03T06:32:51.695Z,0.70
2022-08-03T06:35:20.383Z,0.80
2022-08-03T06:37:50.130Z,1.80
2022-08-03T06:40:24.318Z,0.90
2022-08-03T06:42:52.126Z,1.00
2022-08-03T06:45:19.633Z,1.00
2022-08-03T06:47:47.065Z,1.20
2022-08-03T06:50:16.877Z,0.82
2022-08-03T06:52:45.638Z,0.98
2022-08-03T06:55:13.141Z,0.95
2022-08-03T06:57:40.558Z,0.90
2022-08-03T07:00:12.187Z,0.95
2022-08-03T07:05:09.733Z,1.10
2022-08-03T07:07:37.499Z,1.00
2022-08-03T07:10:06.488Z,1.20
2022-08-03T07:12:34.988Z,1.10
2022-08-03T07:15:04.177Z,1.00
2022-08-03T07:17:34.927Z,0.95
2022-08-03T07:20:05.243Z,1.13
2022-08-03T07:22:33.035Z,0.90
2022-08-03T07:25:00.803Z,1.00
2022-08-03T07:27:29.575Z,0.98
2022-08-03T07:30:00.031Z,0.98
2022-08-03T07:32:28.845Z,1.10
2022-08-03T07:35:00.490Z,1.00
2022-08-03T07:37:29.431Z,0.90
2022-08-03T07:39:57.088Z,0.90
2022-08-03T07:42:24.574Z,1.00
2022-08-03T07:44:51.953Z,0.95
2022-08-03T07:47:25.329Z,1.00
2022-08-03T07:50:02.578Z,1.00
2022-08-03T07:52:48.460Z,0.90
2022-08-03T07:55:17.359Z,0.90
2022-08-03T07:57:45.164Z,0.90
2022-08-03T08:00:18.656Z,0.98
2022-08-03T08:02:46.648Z,1.00
2022-08-03T08:05:14.177Z,1.00
2022-08-03T08:07:41.709Z,0.90
2022-08-03T08:10:10.443Z,0.90
2022-08-03T08:12:41.023Z,0.80
2022-08-03T08:15:09.974Z,0.80
2022-08-03T08:17:55.844Z,1.00
2022-08-03T08:20:31.797Z,0.98
2022-08-03T08:23:02.733Z,0.85
2022-08-03T08:25:31.978Z,1.20
2022-08-03T08:28:29.785Z,1.25
2022-08-03T08:30:51.986Z,1.08
2022-08-03T08:33:22.606Z,1.33
2022-08-03T08:35:50.400Z,1.50
2022-08-03T08:38:17.771Z,1.48
2022-08-03T08:40:46.039Z,1.67
2022-08-03T08:43:13.521Z,1.67
2022-08-03T08:45:43.051Z,1.58
2022-08-03T08:48:13.406Z,1.65
2022-08-03T08:50:41.198Z,1.70
2022-08-03T08:53:18.325Z,1.50
2022-08-03T08:55:59.206Z,1.75
2022-08-03T08:58:37.085Z,1.90
2022-08-03T09:01:04.976Z,2.00
2022-08-03T09:03:34.656Z,1.60
2022-08-03T09:06:02.701Z,1.40
2022-08-03T09:08:32.023Z,1.15
2022-08-03T09:10:59.927Z,1.40
2022-08-03T09:13:27.537Z,1.50
2022-08-03T09:16:11.190Z,1.48
2022-08-03T09:18:39.265Z,1.77
2022-08-03T09:21:34.128Z,1.98
2022-08-03T09:24:05.685Z,1.60
2022-08-03T09:26:36.697Z,1.87
2022-08-03T09:29:13.236Z,2.00
2022-08-03T09:31:47.148Z,2.00
2022-08-03T09:36:50.866Z,1.65
2022-08-03T09:39:40.467Z,1.77
2022-08-03T09:42:14.973Z,2.20
2022-08-03T09:44:45.477Z,2.00
2022-08-03T09:47:16.183Z,1.80
2022-08-03T09:49:57.805Z,1.50
2022-08-03T09:52:52.314Z,1.83
2022-08-03T09:56:34.480Z,1.50
2022-08-03T09:58:14.585Z,1.65
2022-08-03T10:01:04.448Z,1.67
2022-08-03T10:04:02.703Z,1.60
2022-08-03T10:06:28.952Z,1.83
2022-08-03T10:09:11.638Z,2.00
2022-08-03T10:11:42.028Z,1.42
2022-08-03T10:14:19.493Z,1.50
2022-08-03T10:16:48.815Z,1.70
2022-08-03T10:19:17.005Z,1.80
2022-08-03T10:21:50.872Z,1.55
2022-08-03T10:24:24.898Z,1.58
2022-08-03T10:26:54.320Z,1.50
2022-08-03T10:29:25.478Z,1.60
2022-08-03T10:31:58.432Z,1.63
2022-08-03T10:34:35.415Z,1.70
2022-08-03T10:37:08.683Z,1.63
2022-08-03T10:39:37.039Z,1.50
2022-08-03T10:42:06.098Z,1.48
2022-08-03T10:44:42.994Z,1.50
2022-08-03T10:47:11.597Z,1.50
2022-08-03T10:49:39.697Z,1.20
2022-08-03T10:52:13.114Z,1.30
2022-08-03T10:55:03.244Z,1.40
2022-08-03T10:57:58.496Z,1.30
2022-08-03T11:00:30.495Z,1.20
2022-08-03T11:03:14.396Z,1.23
2022-08-03T11:05:47.296Z,1.30
2022-08-03T11:08:37.094Z,1.83
2022-08-03T11:11:20.292Z,1.30
2022-08-03T11:14:05.721Z,1.48
2022-08-03T11:16:39.105Z,1.33
2022-08-03T11:19:11.210Z,1.40
2022-08-03T11:21:51.317Z,1.42
2022-08-03T11:24:37.092Z,1.50
2022-08-03T11:27:19.957Z,1.40
2022-08-03T11:30:07.454Z,1.52
2022-08-03T11:32:38.346Z,1.58
2022-08-03T11:35:26.238Z,1.50
2022-08-03T11:38:04.396Z,1.40
2022-08-03T11:40:48.840Z,1.67
2022-08-03T11:43:22.538Z,2.13
2022-08-03T11:46:03.346Z,1.98
2022-08-03T11:48:46.291Z,2.00
2022-08-03T11:51:25.678Z,2.00
2022-08-03T11:53:58.250Z,1.70
2022-08-03T11:56:26.250Z,1.88
2022-08-03T11:59:15.277Z,1.88
2022-08-03T12:01:46.291Z,1.80
2022-08-03T12:04:13.759Z,1.88
2022-08-03T12:06:56.323Z,1.77
2022-08-03T12:09:23.713Z,1.77
2022-08-03T12:11:59.383Z,1.60
2022-08-03T12:14:49.049Z,2.00
2022-08-03T12:17:17.704Z,2.15
2022-08-03T12:19:45.515Z,2.17
2022-08-03T12:22:13.813Z,2.10
2022-08-03T12:24:46.782Z,2.10
2022-08-03T12:27:25.017Z,1.95
2022-08-03T12:29:58.582Z,2.17
2022-08-03T12:32:28.594Z,2.17
2022-08-03T12:35:02.043Z,2.42
2022-08-03T12:37:32.275Z,2.42
2022-08-03T12:40:09.357Z,2.70
2022-08-03T12:42:40.179Z,2.20
2022-08-03T12:45:21.285Z,2.40
2022-08-03T12:47:56.163Z,2.03
2022-08-03T12:50:31.454Z,2.10
2022-08-03T12:53:01.215Z,1.95
2022-08-03T12:55:56.645Z,1.63
2022-08-03T12:58:43.720Z,2.13
2022-08-03T13:01:13.900Z,2.00
2022-08-03T13:03:50.361Z,2.72
2022-08-03T13:06:25.463Z,2.45
2022-08-03T13:09:04.805Z,2.07
2022-08-03T13:11:57.982Z,2.33
2022-08-03T13:14:20.632Z,1.90
2022-08-03T13:16:49.667Z,2.15
2022-08-03T13:19:21.145Z,1.88
2022-08-03T13:21:53.440Z,1.85
2022-08-03T13:24:32.305Z,1.70
2022-08-03T13:27:00.989Z,1.85
2022-08-03T13:29:48.430Z,2.00
2022-08-03T13:32:15.958Z,1.70
2022-08-03T13:34:43.496Z,1.88
2022-08-03T13:37:12.428Z,1.90
2022-08-03T13:39:58.055Z,1.50
2022-08-03T13:42:35.467Z,1.67
2022-08-03T13:45:04.338Z,1.70
2022-08-03T13:47:34.372Z,1.83
2022-08-03T13:50:03.068Z,2.45
2022-08-03T13:52:36.801Z,1.75
2022-08-03T13:55:06.352Z,1.55
2022-08-03T13:58:05.826Z,1.65
2022-08-03T14:00:28.585Z,1.83
2022-08-03T14:03:12.588Z,1.42
2022-08-03T14:05:42.209Z,1.40
2022-08-03T14:08:10.252Z,2.20
2022-08-03T14:10:40.488Z,1.80
2022-08-03T14:13:08.804Z,1.52
2022-08-03T14:15:37.294Z,1.73
2022-08-03T14:18:15.850Z,1.75
2022-08-03T14:20:56.346Z,1.38
2022-08-03T14:23:25.246Z,1.60
2022-08-03T14:25:53.157Z,1.58
2022-08-03T14:28:24.712Z,1.52
2022-08-03T14:30:53.297Z,1.77
2022-08-03T14:33:21.174Z,1.67
2022-08-03T14:35:49.164Z,1.80
2022-08-03T14:38:17.441Z,1.85
2022-08-03T14:40:45.132Z,1.60
2022-08-03T14:43:12.839Z,2.60
2022-08-03T14:45:40.872Z,4.72
2022-08-03T14:50:12.592Z,1.85
2022-08-03T14:50:57.880Z,1.63
2022-08-03T14:53:25.366Z,1.48
2022-08-03T14:55:53.683Z,1.63
2022-08-03T14:58:22.806Z,1.67
2022-08-03T15:00:51.977Z,1.70
2022-08-03T15:03:24.003Z,1.63
2022-08-03T15:05:56.416Z,1.60
2022-08-03T15:08:25.311Z,1.20
2022-08-03T15:10:54.497Z,1.48
2022-08-03T15:13:22.474Z,1.85
2022-08-03T15:15:50.232Z,1.90
2022-08-03T15:18:17.794Z,1.63
2022-08-03T15:20:46.690Z,1.83
2022-08-03T15:23:16.291Z,2.10
2022-08-03T15:26:29.454Z,1.70
2022-08-03T15:28:32.797Z,2.08
2022-08-03T15:31:01.370Z,1.80
2022-08-03T15:33:29.763Z,1.50
2022-08-03T15:35:57.518Z,1.90
2022-08-03T15:38:26.232Z,1.88
2022-08-03T15:40:55.590Z,2.00
2022-08-03T15:43:24.146Z,1.92
2022-08-03T15:46:12.803Z,1.80
2022-08-03T15:48:40.753Z,1.90
2022-08-03T15:51:09.259Z,1.92
2022-08-03T15:53:37.764Z,2.22
2022-08-03T15:56:11.318Z,2.10
2022-08-03T15:59:09.483Z,2.08
2022-08-03T16:01:30.077Z,1.80
2022-08-03T16:03:57.695Z,1.70
2022-08-03T16:06:34.660Z,1.60
2022-08-03T16:09:23.899Z,2.00
2022-08-03T16:11:56.251Z,1.52
2022-08-03T16:14:32.281Z,1.80
2022-08-03T16:17:04.277Z,1.80
2022-08-03T16:19:31.794Z,1.70
2022-08-03T16:21:59.356Z,1.70
2022-08-03T16:24:28.618Z,1.90
2022-08-03T16:26:57.050Z,1.60
2022-08-03T16:29:24.506Z,1.60
2022-08-03T16:31:52.692Z,1.88
2022-08-03T16:34:20.679Z,1.83
2022-08-03T16:36:48.250Z,1.75
2022-08-03T16:39:15.959Z,1.65
2022-08-03T16:41:54.029Z,1.92
2022-08-03T16:44:30.909Z,1.90
2022-08-03T16:46:59.721Z,1.80
2022-08-03T16:49:54.658Z,1.65
2022-08-03T16:52:16.757Z,1.75
2022-08-03T16:54:52.735Z,2.10
2022-08-03T16:57:55.680Z,1.38
2022-08-03T17:00:34.283Z,1.42
2022-08-03T17:03:04.365Z,1.42
2022-08-03T17:05:46.971Z,1.40
2022-08-03T17:08:16.384Z,1.55
2022-08-03T17:10:53.982Z,1.60
2022-08-03T17:13:22.880Z,1.75
2022-08-03T17:16:01.326Z,1.58
2022-08-03T17:18:35.649Z,1.20
2022-08-03T17:21:07.999Z,1.30
2022-08-03T17:23:57.625Z,1.57
2022-08-03T17:26:30.595Z,1.40
2022-08-03T17:29:12.932Z,1.40
2022-08-03T17:31:48.944Z,1.45
2022-08-03T17:34:18.720Z,1.58
2022-08-03T17:37:04.096Z,1.17
2022-08-03T17:39:57.738Z,1.27
2022-08-03T17:42:30.324Z,1.27
2022-08-03T17:45:02.119Z,1.40
2022-08-03T17:47:42.133Z,1.35
2022-08-03T17:50:24.539Z,1.38
2022-08-03T17:53:06.854Z,1.20
2022-08-03T17:55:55.232Z,1.25
2022-08-03T17:58:55.193Z,1.20
2022-08-03T18:02:00.769Z,1.55
2022-08-03T18:04:41.302Z,1.27
2022-08-03T18:07:12.625Z,1.40
2022-08-03T18:10:03.699Z,1.20
2022-08-03T18:12:51.890Z,1.38
2022-08-03T18:15:30.441Z,1.30
2022-08-03T18:18:10.377Z,1.20
2022-08-03T18:20:42.008Z,1.17
2022-08-03T18:23:20.651Z,1.23
2022-08-03T18:26:05.637Z,1.30
2022-08-03T18:28:35.862Z,1.27
2022-08-03T18:31:05.993Z,1.40
2022-08-03T18:34:20.037Z,1.20
2022-08-03T18:36:30.127Z,1.00
2022-08-03T18:39:02.990Z,1.40
2022-08-03T18:41:34.624Z,1.35
2022-08-03T18:44:37.243Z,1.27
2022-08-03T18:47:50.726Z,1.42
2022-08-03T18:50:30.576Z,1.23
2022-08-03T18:53:03.072Z,1.33
2022-08-03T18:55:33.751Z,1.33
2022-08-03T19:01:57.996Z,1.02
2022-08-03T19:04:25.300Z,1.58
2022-08-03T19:07:02.848Z,1.10
2022-08-03T19:09:49.580Z,1.40
2022-08-03T19:12:30.602Z,1.40
2022-08-03T19:15:05.942Z,1.25
2022-08-03T19:17:53.626Z,1.10
2022-08-03T19:20:25.060Z,1.30
2022-08-03T19:22:54.739Z,1.50
2022-08-03T19:25:34.534Z,1.50
2022-08-03T19:28:07.353Z,1.50
2022-08-03T19:35:58.358Z,1.40
2022-08-03T19:41:18.023Z,1.50
2022-08-03T19:44:02.098Z,1.40
2022-08-03T19:46:37.833Z,1.50
2022-08-03T19:49:14.596Z,1.58
2022-08-03T19:51:59.041Z,1.70
2022-08-03T19:54:52.768Z,1.48
2022-08-03T19:57:25.006Z,1.50
2022-08-03T19:59:54.402Z,1.50
2022-08-03T20:02:27.125Z,1.90
2022-08-03T20:04:59.579Z,1.58
2022-08-03T20:07:48.437Z,1.50
2022-08-03T20:10:18.131Z,1.40
2022-08-03T20:12:47.581Z,1.55
2022-08-03T20:15:18.111Z,1.55
2022-08-03T20:17:54.882Z,1.60
2022-08-03T20:20:29.454Z,1.58
2022-08-03T20:22:59.513Z,2.00
2022-08-03T20:25:38.089Z,1.88
2022-08-03T20:28:15.073Z,1.95
2022-08-03T20:30:47.187Z,1.80
2022-08-03T20:33:18.818Z,1.77
2022-08-03T20:35:49.679Z,1.60
2022-08-03T20:38:20.379Z,1.67
2022-08-03T20:40:55.021Z,1.92
2022-08-03T20:43:26.764Z,2.03
2022-08-03T20:46:00.077Z,1.98
2022-08-03T20:48:43.475Z,1.90
2022-08-03T20:51:20.151Z,2.40
2022-08-03T20:54:09.659Z,2.03
2022-08-03T20:56:53.726Z,1.80
2022-08-03T20:59:21.686Z,2.00
2022-08-03T21:01:49.185Z,1.90
2022-08-03T21:04:20.947Z,2.00
2022-08-03T21:06:57.438Z,2.00
2022-08-03T21:09:33.478Z,2.03
2022-08-03T21:12:13.165Z,1.90
2022-08-03T21:13:02.596Z,1.40
2022-08-03T21:13:10.126Z,1.30
2022-08-03T21:13:10.907Z,1.30
2022-08-03T21:14:52.540Z,1.75
2022-08-03T21:17:39.216Z,2.03
2022-08-03T21:20:12.421Z,1.98
2022-08-03T21:22:44.087Z,2.13
2022-08-03T21:25:15.034Z,1.80
2022-08-03T21:27:42.551Z,2.10
2022-08-03T21:30:11.446Z,2.15
2022-08-03T21:32:40.681Z,2.20
2022-08-03T21:35:12.943Z,2.28
2022-08-03T21:37:41.885Z,2.00
2022-08-03T21:40:12.482Z,2.15
2022-08-03T21:42:41.703Z,2.10
2022-08-03T21:45:16.875Z,2.40
2022-08-03T21:47:46.046Z,2.00
2022-08-03T21:50:13.967Z,1.80
2022-08-03T21:52:45.308Z,1.98
2022-08-03T21:55:20.332Z,2.10
2022-08-03T21:57:53.316Z,2.08
2022-08-03T22:00:23.411Z,2.20
2022-08-03T22:02:57.166Z,1.88
2022-08-03T22:05:28.874Z,1.88
2022-08-03T22:08:13.112Z,2.30
2022-08-03T22:10:43.438Z,2.10
2022-08-03T22:13:13.283Z,2.00
2022-08-03T22:15:41.263Z,2.38
2022-08-03T22:18:09.599Z,2.20
2022-08-03T22:20:37.260Z,1.90
2022-08-03T22:23:06.850Z,2.13
2022-08-03T22:25:39.110Z,2.25
2022-08-03T22:28:10.309Z,1.90
2022-08-03T22:30:39.302Z,2.00
2022-08-03T22:33:11.208Z,1.80
2022-08-03T22:35:47.953Z,1.90
2022-08-03T22:38:18.311Z,1.70
2022-08-03T22:40:49.094Z,1.73
2022-08-03T22:43:17.290Z,1.50
2022-08-03T22:46:10.138Z,1.48
2022-08-03T22:48:41.029Z,1.52
2022-08-03T22:51:09.735Z,1.60
2022-08-03T22:53:38.745Z,1.77
2022-08-03T22:56:07.085Z,1.60
2022-08-03T22:58:34.551Z,1.80
2022-08-03T23:01:08.723Z,1.80
2022-08-03T23:04:01.221Z,1.85
2022-08-03T23:06:35.980Z,1.92
2022-08-03T23:09:10.098Z,1.85
2022-08-03T23:11:46.153Z,1.58
2022-08-03T23:14:16.888Z,2.20
2022-08-03T23:16:46.136Z,2.40
2022-08-03T23:19:17.149Z,2.15
2022-08-03T23:22:02.827Z,2.50
2022-08-03T23:24:35.990Z,2.78
2022-08-03T23:27:05.765Z,2.65
2022-08-03T23:29:38.769Z,3.72
2022-08-03T23:32:07.256Z,8.45
2022-08-03T23:34:53.492Z,6.97
2022-08-03T23:37:21.268Z,7.65
2022-08-03T23:39:49.351Z,6.97
2022-08-03T23:42:19.521Z,3.92
2022-08-03T23:44:47.388Z,4.65
2022-08-03T23:47:15.539Z,3.17
2022-08-03T23:49:43.191Z,3.78
2022-08-03T23:52:21.822Z,3.22
2022-08-03T23:55:15.156Z,2.97
2022-08-03T23:58:01.751Z,4.50
